sensor_id;sensor_type;location;lat;lon;timestamp;temperature;humidity
28069;DHT22;15382;47.578;8.086;2024-02-14T00:03:04;3.10;99.90
28069;DHT22;15382;47.578;8.086;2024-02-14T00:13:06;2.90;99.90
28069;DHT22;15382;47.578;8.086;2024-02-14T00:23:08;2.50;99.90
28069;DHT22;15382;47.578;8.086;2024-02-14T00:33:09;2.60;99.90
28069;DHT22;15382;47.578;8.086;2024-02-14T00:43:10;2.60;99.90
28069;DHT22;15382;47.578;8.086;2024-02-14T00:53:10;2.50;99.90
28069;DHT22;15382;47.578;8.086;2024-02-14T01:03:11;2.60;99.90
28069;DHT22;15382;47.578;8.086;2024-02-14T01:13:13;2.70;99.90
28069;DHT22;15382;47.578;8.086;2024-02-14T01:23:13;2.70;99.90
28069;DHT22;15382;47.578;8.086;2024-02-14T01:33:14;2.60;99.90
28069;DHT22;15382;47.578;8.086;2024-02-14T01:43:17;2.60;99.90
28069;DHT22;15382;47.578;8.086;2024-02-14T01:53:17;2.60;99.90
28069;DHT22;15382;47.578;8.086;2024-02-14T02:03:18;2.20;99.90
28069;DHT22;15382;47.578;8.086;2024-02-14T02:13:20;2.40;99.90
28069;DHT22;15382;47.578;8.086;2024-02-14T02:23:23;2.20;99.90
28069;DHT22;15382;47.578;8.086;2024-02-14T02:33:24;2.30;99.90
28069;DHT22;15382;47.578;8.086;2024-02-14T02:43:24;2.50;99.90
28069;DHT22;15382;47.578;8.086;2024-02-14T02:53:25;2.60;99.90
28069;DHT22;15382;47.578;8.086;2024-02-14T03:03:26;2.80;99.90
28069;DHT22;15382;47.578;8.086;2024-02-14T03:13:28;3.00;99.90
28069;DHT22;15382;47.578;8.086;2024-02-14T03:23:29;2.90;99.90
28069;DHT22;15382;47.578;8.086;2024-02-14T03:33:29;3.00;99.90
28069;DHT22;15382;47.578;8.086;2024-02-14T03:43:30;3.10;99.90
28069;DHT22;15382;47.578;8.086;2024-02-14T03:53:32;3.10;99.90
28069;DHT22;15382;47.578;8.086;2024-02-14T04:03:33;3.10;99.90
28069;DHT22;15382;47.578;8.086;2024-02-14T04:13:34;2.70;99.90
28069;DHT22;15382;47.578;8.086;2024-02-14T04:23:34;2.20;99.90
28069;DHT22;15382;47.578;8.086;2024-02-14T04:33:35;2.20;99.90
28069;DHT22;15382;47.578;8.086;2024-02-14T04:43:36;2.30;99.90
28069;DHT22;15382;47.578;8.086;2024-02-14T04:53:36;2.50;99.90
28069;DHT22;15382;47.578;8.086;2024-02-14T05:03:38;2.80;99.90
28069;DHT22;15382;47.578;8.086;2024-02-14T05:13:38;2.80;99.90
28069;DHT22;15382;47.578;8.086;2024-02-14T05:23:41;2.90;99.90
28069;DHT22;15382;47.578;8.086;2024-02-14T05:33:42;3.10;99.90
28069;DHT22;15382;47.578;8.086;2024-02-14T05:43:43;3.10;99.90
28069;DHT22;15382;47.578;8.086;2024-02-14T05:53:44;3.10;99.90
28069;DHT22;15382;47.578;8.086;2024-02-14T06:03:44;3.30;99.90
28069;DHT22;15382;47.578;8.086;2024-02-14T06:13:45;3.40;99.90
28069;DHT22;15382;47.578;8.086;2024-02-14T06:23:46;3.40;99.90
28069;DHT22;15382;47.578;8.086;2024-02-14T06:33:47;3.30;99.90
28069;DHT22;15382;47.578;8.086;2024-02-14T06:43:48;3.20;99.90
28069;DHT22;15382;47.578;8.086;2024-02-14T06:53:49;3.30;99.90
28069;DHT22;15382;47.578;8.086;2024-02-14T07:03:50;3.50;99.90
28069;DHT22;15382;47.578;8.086;2024-02-14T07:13:51;3.70;99.90
28069;DHT22;15382;47.578;8.086;2024-02-14T07:23:52;3.90;99.90
28069;DHT22;15382;47.578;8.086;2024-02-14T07:33:54;4.00;99.90
28069;DHT22;15382;47.578;8.086;2024-02-14T07:43:54;4.10;99.90
28069;DHT22;15382;47.578;8.086;2024-02-14T07:53:57;4.60;99.90
28069;DHT22;15382;47.578;8.086;2024-02-14T08:03:57;4.90;99.90
28069;DHT22;15382;47.578;8.086;2024-02-14T08:13:58;5.00;99.90
28069;DHT22;15382;47.578;8.086;2024-02-14T08:24:00;5.10;99.90
28069;DHT22;15382;47.578;8.086;2024-02-14T08:34:00;5.20;99.90
28069;DHT22;15382;47.578;8.086;2024-02-14T08:44:01;5.30;99.90
28069;DHT22;15382;47.578;8.086;2024-02-14T08:54:02;5.60;99.90
28069;DHT22;15382;47.578;8.086;2024-02-14T09:04:05;5.80;99.90
28069;DHT22;15382;47.578;8.086;2024-02-14T09:14:06;6.00;99.90
28069;DHT22;15382;47.578;8.086;2024-02-14T09:24:07;6.40;99.90
28069;DHT22;15382;47.578;8.086;2024-02-14T09:34:07;7.40;99.90
28069;DHT22;15382;47.578;8.086;2024-02-14T09:44:08;7.30;99.90
28069;DHT22;15382;47.578;8.086;2024-02-14T09:54:09;7.80;99.90
28069;DHT22;15382;47.578;8.086;2024-02-14T10:04:10;8.30;99.90
28069;DHT22;15382;47.578;8.086;2024-02-14T10:14:12;8.70;99.90
28069;DHT22;15382;47.578;8.086;2024-02-14T10:24:13;9.00;99.90
28069;DHT22;15382;47.578;8.086;2024-02-14T10:34:14;8.70;99.90
28069;DHT22;15382;47.578;8.086;2024-02-14T10:44:15;8.70;99.90
28069;DHT22;15382;47.578;8.086;2024-02-14T10:54:16;9.20;99.90
28069;DHT22;15382;47.578;8.086;2024-02-14T11:04:17;9.90;99.90
28069;DHT22;15382;47.578;8.086;2024-02-14T11:14:18;11.10;99.90
28069;DHT22;15382;47.578;8.086;2024-02-14T11:24:26;12.00;99.90
28069;DHT22;15382;47.578;8.086;2024-02-14T11:34:27;13.00;99.90
28069;DHT22;15382;47.578;8.086;2024-02-14T11:44:28;13.10;99.90
28069;DHT22;15382;47.578;8.086;2024-02-14T11:54:29;14.00;99.90
28069;DHT22;15382;47.578;8.086;2024-02-14T12:04:29;13.90;99.90
28069;DHT22;15382;47.578;8.086;2024-02-14T12:14:32;13.40;99.90
28069;DHT22;15382;47.578;8.086;2024-02-14T12:24:32;13.80;99.90
28069;DHT22;15382;47.578;8.086;2024-02-14T12:34:33;14.10;99.90
28069;DHT22;15382;47.578;8.086;2024-02-14T12:44:34;14.10;99.90
28069;DHT22;15382;47.578;8.086;2024-02-14T12:54:35;13.60;99.90
28069;DHT22;15382;47.578;8.086;2024-02-14T13:04:35;13.30;99.90
28069;DHT22;15382;47.578;8.086;2024-02-14T13:14:36;12.90;99.90
28069;DHT22;15382;47.578;8.086;2024-02-14T13:24:37;13.20;99.90
28069;DHT22;15382;47.578;8.086;2024-02-14T13:34:38;13.20;99.90
28069;DHT22;15382;47.578;8.086;2024-02-14T13:44:39;13.20;99.90
28069;DHT22;15382;47.578;8.086;2024-02-14T13:54:39;13.20;99.90
28069;DHT22;15382;47.578;8.086;2024-02-14T14:04:40;13.40;99.90
28069;DHT22;15382;47.578;8.086;2024-02-14T14:14:41;12.80;99.90
28069;DHT22;15382;47.578;8.086;2024-02-14T14:24:42;13.00;99.90
28069;DHT22;15382;47.578;8.086;2024-02-14T14:34:42;13.20;99.90
28069;DHT22;15382;47.578;8.086;2024-02-14T14:44:43;13.10;99.90
28069;DHT22;15382;47.578;8.086;2024-02-14T14:54:44;12.80;99.90
28069;DHT22;15382;47.578;8.086;2024-02-14T15:04:44;12.90;99.90
28069;DHT22;15382;47.578;8.086;2024-02-14T15:14:47;12.70;99.90
28069;DHT22;15382;47.578;8.086;2024-02-14T15:24:47;12.50;99.90
28069;DHT22;15382;47.578;8.086;2024-02-14T15:34:49;12.60;99.90
28069;DHT22;15382;47.578;8.086;2024-02-14T15:44:50;12.40;99.90
28069;DHT22;15382;47.578;8.086;2024-02-14T15:54:51;12.30;99.90
28069;DHT22;15382;47.578;8.086;2024-02-14T16:04:53;12.30;99.90
28069;DHT22;15382;47.578;8.086;2024-02-14T16:14:54;12.20;99.90
28069;DHT22;15382;47.578;8.086;2024-02-14T16:24:54;12.10;99.90
28069;DHT22;15382;47.578;8.086;2024-02-14T16:34:55;12.00;99.90
28069;DHT22;15382;47.578;8.086;2024-02-14T16:44:55;12.00;99.90
28069;DHT22;15382;47.578;8.086;2024-02-14T16:54:56;11.50;99.90
28069;DHT22;15382;47.578;8.086;2024-02-14T17:04:57;11.10;99.90
28069;DHT22;15382;47.578;8.086;2024-02-14T17:14:57;10.60;99.90
28069;DHT22;15382;47.578;8.086;2024-02-14T17:24:59;10.40;99.90
28069;DHT22;15382;47.578;8.086;2024-02-14T17:34:59;10.30;99.90
28069;DHT22;15382;47.578;8.086;2024-02-14T17:45:00;10.30;99.90
28069;DHT22;15382;47.578;8.086;2024-02-14T17:55:01;10.30;99.90
28069;DHT22;15382;47.578;8.086;2024-02-14T18:05:03;9.90;99.90
28069;DHT22;15382;47.578;8.086;2024-02-14T18:15:05;9.80;99.90
28069;DHT22;15382;47.578;8.086;2024-02-14T18:25:07;9.70;99.90
28069;DHT22;15382;47.578;8.086;2024-02-14T18:35:11;9.60;99.90
28069;DHT22;15382;47.578;8.086;2024-02-14T18:45:12;9.50;99.90
28069;DHT22;15382;47.578;8.086;2024-02-14T18:55:13;9.40;99.90
28069;DHT22;15382;47.578;8.086;2024-02-14T19:05:14;9.20;99.90
28069;DHT22;15382;47.578;8.086;2024-02-14T19:15:15;9.10;99.90
28069;DHT22;15382;47.578;8.086;2024-02-14T19:25:15;8.90;99.90
28069;DHT22;15382;47.578;8.086;2024-02-14T19:35:16;8.70;99.90
28069;DHT22;15382;47.578;8.086;2024-02-14T19:45:17;8.70;99.90
28069;DHT22;15382;47.578;8.086;2024-02-14T19:55:18;8.70;99.90
28069;DHT22;15382;47.578;8.086;2024-02-14T20:05:18;8.50;99.90
28069;DHT22;15382;47.578;8.086;2024-02-14T20:15:19;8.50;99.90
28069;DHT22;15382;47.578;8.086;2024-02-14T20:25:21;8.50;99.90
28069;DHT22;15382;47.578;8.086;2024-02-14T20:35:22;8.50;99.90
28069;DHT22;15382;47.578;8.086;2024-02-14T20:45:23;8.50;99.90
28069;DHT22;15382;47.578;8.086;2024-02-14T20:55:24;8.60;99.90
28069;DHT22;15382;47.578;8.086;2024-02-14T21:05:25;8.50;99.90
28069;DHT22;15382;47.578;8.086;2024-02-14T21:15:26;8.30;99.90
28069;DHT22;15382;47.578;8.086;2024-02-14T21:25:26;7.90;99.90
28069;DHT22;15382;47.578;8.086;2024-02-14T21:35:27;7.70;99.90
28069;DHT22;15382;47.578;8.086;2024-02-14T21:45:28;7.40;99.90
28069;DHT22;15382;47.578;8.086;2024-02-14T21:55:29;7.00;99.90
28069;DHT22;15382;47.578;8.086;2024-02-14T22:05:29;7.00;99.90
28069;DHT22;15382;47.578;8.086;2024-02-14T22:15:31;6.70;99.90
28069;DHT22;15382;47.578;8.086;2024-02-14T22:25:31;6.50;99.90
28069;DHT22;15382;47.578;8.086;2024-02-14T22:35:32;6.60;99.90
28069;DHT22;15382;47.578;8.086;2024-02-14T22:45:32;6.20;99.90
28069;DHT22;15382;47.578;8.086;2024-02-14T22:55:33;6.20;99.90
28069;DHT22;15382;47.578;8.086;2024-02-14T23:05:34;6.20;99.90
28069;DHT22;15382;47.578;8.086;2024-02-14T23:15:35;5.90;99.90
28069;DHT22;15382;47.578;8.086;2024-02-14T23:25:37;5.50;99.90
28069;DHT22;15382;47.578;8.086;2024-02-14T23:35:38;5.50;99.90
28069;DHT22;15382;47.578;8.086;2024-02-14T23:45:39;5.50;99.90
28069;DHT22;15382;47.578;8.086;2024-02-14T23:55:40;5.30;99.90
